Halleck, Nevada
Current Conditions -  °F | °C
As of 3:56 AM on Tuesday 27 Jan 2015 (Local Time) from KEKO Reporting Station
Scattered Clouds Scattered Clouds  
Wind Chill: 29°   Ceiling: Unl
Heat Index: 33°   Visibility: 10mi
Dew Point: 27°   Wind: 5mph
Humidity: 78%   Direction: 30°NNE
Pressure: 30.12"   Gusts: NA
Location:  40.95°N, 115.45°W
Report Text: KEKO 271156Z AUTO 03004KT 10SM SCT095 01/M03 A3012 RMK AO2 SLP190 T00061028 10028 21006 51002
Loading
Personal Weather Stations






























Interactive Weather Map New forecast layout! Learn more

10-Day Weather Forecast

Advertisements
Track Severe Weather on mobile